createdAt,value
2024-02-02T00:07:32.950Z,12.93
2024-02-02T00:10:56.279Z,12.81
2024-02-02T00:20:30.081Z,12.87
2024-02-02T00:55:18.847Z,12.88
2024-02-02T01:16:37.976Z,12.96
2024-02-02T01:21:47.609Z,12.98
2024-02-02T01:23:00.516Z,12.98
2024-02-02T01:55:07.614Z,12.98
2024-02-02T01:59:12.073Z,12.95
2024-02-02T02:04:55.266Z,12.90
2024-02-02T02:20:05.429Z,12.87
2024-02-02T02:21:18.340Z,12.90
2024-02-02T02:29:13.470Z,12.96
2024-02-02T02:50:17.942Z,12.90
2024-02-02T03:00:34.291Z,12.99
2024-02-02T03:07:45.460Z,12.99
2024-02-02T03:16:21.459Z,12.98
2024-02-02T03:22:48.834Z,12.90
2024-02-02T03:39:22.029Z,12.96
2024-02-02T03:41:46.422Z,12.99
2024-02-02T03:52:08.757Z,13.06
2024-02-02T03:54:18.951Z,13.01
2024-02-02T04:01:07.153Z,12.96
2024-02-02T04:09:49.711Z,12.99
2024-02-02T04:10:45.756Z,12.95
2024-02-02T04:11:41.785Z,12.96
2024-02-02T04:12:38.985Z,12.95
2024-02-02T04:13:34.981Z,12.93
2024-02-02T04:14:32.008Z,12.96
2024-02-02T04:15:30.789Z,12.99
2024-02-02T04:16:25.133Z,12.93
2024-02-02T04:17:21.180Z,12.95
2024-02-02T04:18:17.476Z,12.91
2024-02-02T04:19:14.358Z,12.93
2024-02-02T04:20:10.396Z,12.96
2024-02-02T04:21:06.492Z,12.93
2024-02-02T04:22:03.501Z,12.99
2024-02-02T04:22:59.563Z,12.96
2024-02-02T04:23:56.669Z,12.99
2024-02-02T04:24:52.666Z,13.04
2024-02-02T04:25:48.878Z,12.95
2024-02-02T04:26:44.870Z,12.98
2024-02-02T04:27:43.425Z,13.01
2024-02-02T04:28:39.513Z,12.99
2024-02-02T04:29:35.517Z,12.95
2024-02-02T04:30:32.568Z,13.06
2024-02-02T04:31:28.701Z,13.06
2024-02-02T04:32:25.849Z,13.08
2024-02-02T04:33:21.540Z,13.06
2024-02-02T04:34:17.650Z,13.05
2024-02-02T04:35:13.532Z,12.95
2024-02-02T04:36:10.817Z,13.05
2024-02-02T04:37:06.675Z,13.01
2024-02-02T04:38:02.793Z,13.09
2024-02-02T04:38:59.835Z,13.04
2024-02-02T04:39:55.924Z,13.05
2024-02-02T04:40:51.935Z,13.02
2024-02-02T04:41:48.959Z,13.06
2024-02-02T04:42:45.050Z,13.09
2024-02-02T04:43:41.170Z,13.04
2024-02-02T04:44:38.253Z,13.08
2024-02-02T04:45:34.399Z,13.06
2024-02-02T04:46:30.359Z,13.09
2024-02-02T04:47:26.442Z,13.04
2024-02-02T04:48:23.601Z,12.98
2024-02-02T04:49:19.750Z,13.02
2024-02-02T04:50:16.178Z,13.04
2024-02-02T04:51:12.319Z,13.02
2024-02-02T04:52:09.312Z,13.01
2024-02-02T04:53:05.460Z,12.93
2024-02-02T04:54:02.507Z,12.93
2024-02-02T04:54:58.557Z,12.96
2024-02-02T04:55:57.108Z,12.91
2024-02-02T04:56:53.277Z,12.99
2024-02-02T04:57:51.764Z,12.96
2024-02-02T04:58:47.873Z,12.96
2024-02-02T04:59:46.249Z,12.96
2024-02-02T05:00:42.472Z,12.98
2024-02-02T05:01:38.601Z,12.95
2024-02-02T05:02:35.622Z,12.96
2024-02-02T05:03:32.772Z,12.95
2024-02-02T05:04:28.848Z,12.95
2024-02-02T05:05:24.885Z,12.99
2024-02-02T05:06:21.046Z,12.90
2024-02-02T05:07:17.011Z,12.87
2024-02-02T05:08:13.299Z,12.91
2024-02-02T05:09:10.163Z,12.98
2024-02-02T05:10:07.401Z,12.99
2024-02-02T05:11:03.789Z,12.95
2024-02-02T05:12:00.879Z,12.96
2024-02-02T05:12:57.985Z,12.93
2024-02-02T05:13:56.393Z,12.93
2024-02-02T05:14:52.586Z,12.93
2024-02-02T05:15:49.619Z,12.98
2024-02-02T05:16:48.068Z,12.96
2024-02-02T05:17:44.285Z,12.95
2024-02-02T05:18:40.511Z,12.93
2024-02-02T05:19:37.446Z,12.93
2024-02-02T05:20:33.558Z,12.98
2024-02-02T05:21:29.587Z,12.95
2024-02-02T05:22:26.645Z,12.99
2024-02-02T05:23:22.685Z,12.99
2024-02-02T05:24:31.825Z,12.96
2024-02-02T05:25:15.626Z,12.98
2024-02-02T05:26:10.942Z,13.02
2024-02-02T05:27:08.037Z,12.91
2024-02-02T05:28:04.081Z,12.93
2024-02-02T05:29:00.175Z,13.01
2024-02-02T05:29:56.316Z,12.93
2024-02-02T05:30:52.388Z,13.01
2024-02-02T05:31:49.574Z,12.93
2024-02-02T05:32:47.584Z,13.02
2024-02-02T05:33:46.841Z,13.01
2024-02-02T05:34:43.192Z,12.95
2024-02-02T05:35:40.145Z,12.98
2024-02-02T05:36:36.264Z,12.96
2024-02-02T05:37:31.828Z,12.95
2024-02-02T05:38:27.353Z,12.99
2024-02-02T05:39:23.533Z,13.02
2024-02-02T05:40:21.918Z,12.96
2024-02-02T05:41:18.082Z,12.96
2024-02-02T05:42:14.215Z,12.98
2024-02-02T05:43:11.205Z,12.98
2024-02-02T05:44:07.284Z,12.93
2024-02-02T05:45:05.778Z,12.96
2024-02-02T05:46:01.867Z,12.95
2024-02-02T05:46:58.790Z,12.96
2024-02-02T05:47:55.170Z,12.99
2024-02-02T05:48:51.228Z,13.02
2024-02-02T05:49:47.117Z,13.02
2024-02-02T05:50:43.194Z,12.98
2024-02-02T05:51:40.338Z,12.98
2024-02-02T05:52:37.168Z,12.95
2024-02-02T05:53:34.260Z,12.95
2024-02-02T05:54:30.556Z,13.01
2024-02-02T05:55:26.552Z,12.98
2024-02-02T05:56:22.554Z,13.01
2024-02-02T05:57:18.705Z,13.02
2024-02-02T05:58:14.711Z,12.99
2024-02-02T05:59:10.916Z,12.98
2024-02-02T06:00:07.009Z,13.01
2024-02-02T06:01:03.116Z,12.95
2024-02-02T06:01:59.132Z,12.98
2024-02-02T06:02:55.224Z,13.05
2024-02-02T06:03:52.258Z,12.93
2024-02-02T06:04:48.390Z,12.98
2024-02-02T06:05:44.419Z,12.96
2024-02-02T06:06:41.570Z,12.98
2024-02-02T06:07:37.548Z,12.98
2024-02-02T06:08:33.665Z,13.01
2024-02-02T06:09:29.253Z,12.93
2024-02-02T06:10:25.342Z,12.90
2024-02-02T06:11:21.416Z,12.96
2024-02-02T06:12:18.495Z,12.99
2024-02-02T06:13:14.618Z,12.93
2024-02-02T06:14:11.745Z,12.90
2024-02-02T06:15:07.855Z,12.95
2024-02-02T06:16:03.958Z,12.95
2024-02-02T06:16:59.875Z,12.93
2024-02-02T06:17:56.190Z,12.95
2024-02-02T06:18:51.936Z,12.96
2024-02-02T06:19:48.073Z,12.90
2024-02-02T06:20:43.936Z,12.90
2024-02-02T06:21:40.000Z,12.91
2024-02-02T06:22:36.107Z,12.95
2024-02-02T06:23:32.179Z,12.95
2024-02-02T06:24:28.275Z,12.91
2024-02-02T06:25:25.308Z,12.93
2024-02-02T06:26:20.883Z,12.95
2024-02-02T06:27:17.972Z,12.91
2024-02-02T06:28:13.956Z,12.99
2024-02-02T06:29:10.094Z,12.98
2024-02-02T06:30:07.257Z,12.95
2024-02-02T06:31:04.340Z,12.96
2024-02-02T06:32:00.627Z,12.96
2024-02-02T06:32:57.545Z,12.96
2024-02-02T06:33:53.938Z,12.93
2024-02-02T06:34:51.983Z,12.95
2024-02-02T06:35:47.033Z,13.01
2024-02-02T06:36:43.073Z,12.98
2024-02-02T06:37:38.523Z,12.98
2024-02-02T06:38:34.825Z,12.95
2024-02-02T06:39:30.861Z,12.95
2024-02-02T06:40:26.926Z,12.98
2024-02-02T06:41:23.961Z,12.99
2024-02-02T06:42:19.534Z,12.98
2024-02-02T06:43:15.611Z,12.96
2024-02-02T06:44:11.124Z,12.99
2024-02-02T06:45:08.277Z,12.95
2024-02-02T06:46:04.278Z,12.96
2024-02-02T06:47:00.282Z,12.99
2024-02-02T06:47:56.612Z,12.95
2024-02-02T06:48:52.770Z,12.99
2024-02-02T06:49:48.685Z,12.98
2024-02-02T06:50:44.244Z,12.95
2024-02-02T06:51:39.871Z,13.05
2024-02-02T06:52:35.870Z,12.99
2024-02-02T06:53:31.925Z,12.98
2024-02-02T06:54:27.899Z,12.98
2024-02-02T06:55:24.047Z,12.96
2024-02-02T06:56:20.075Z,12.99
2024-02-02T06:57:18.679Z,12.95
2024-02-02T06:58:14.730Z,12.98
2024-02-02T06:59:10.896Z,12.96
2024-02-02T07:00:06.915Z,12.98
2024-02-02T07:01:03.095Z,12.91
2024-02-02T07:01:59.027Z,12.95
2024-02-02T07:02:55.266Z,12.95
2024-02-02T07:03:51.551Z,12.93
2024-02-02T07:04:47.393Z,12.96
2024-02-02T07:05:43.097Z,12.99
2024-02-02T07:06:40.166Z,12.93
2024-02-02T07:07:36.707Z,12.95
2024-02-02T07:08:32.903Z,12.99
2024-02-02T07:09:29.137Z,12.98
2024-02-02T07:10:25.246Z,12.99
2024-02-02T07:11:21.412Z,12.96
2024-02-02T07:12:18.539Z,12.99
2024-02-02T07:13:15.638Z,12.98
2024-02-02T07:14:12.605Z,12.93
2024-02-02T07:15:08.771Z,12.96
2024-02-02T07:16:05.730Z,12.98
2024-02-02T07:16:51.743Z,12.99
2024-02-02T07:17:48.300Z,12.96
2024-02-02T07:18:44.008Z,12.95
2024-02-02T07:19:41.855Z,12.98
2024-02-02T07:20:37.990Z,12.98
2024-02-02T07:21:34.875Z,12.99
2024-02-02T07:22:29.542Z,12.96
2024-02-02T07:23:28.102Z,12.86
2024-02-02T07:24:25.192Z,12.90
2024-02-02T07:25:23.032Z,12.79
2024-02-02T07:26:20.079Z,12.81
2024-02-02T07:27:17.194Z,12.83
2024-02-02T07:28:14.942Z,12.83
2024-02-02T07:29:11.904Z,12.80
2024-02-02T07:30:10.426Z,12.87
2024-02-02T07:31:07.000Z,12.87
2024-02-02T07:32:03.299Z,12.91
2024-02-02T07:33:00.903Z,12.90
2024-02-02T07:33:57.597Z,12.86
2024-02-02T07:34:56.143Z,12.91
2024-02-02T07:35:49.617Z,12.91
2024-02-02T07:36:45.751Z,12.83
2024-02-02T07:37:41.884Z,12.91
2024-02-02T07:38:37.751Z,12.95
2024-02-02T07:39:33.986Z,12.90
2024-02-02T07:40:31.003Z,12.83
2024-02-02T07:41:27.090Z,12.83
2024-02-02T07:42:29.043Z,12.91
2024-02-02T07:43:21.303Z,12.95
2024-02-02T07:44:17.336Z,12.95
2024-02-02T07:45:14.506Z,12.86
2024-02-02T07:46:14.355Z,12.88
2024-02-02T07:47:08.319Z,12.90
2024-02-02T07:48:06.411Z,12.90
2024-02-02T07:49:02.174Z,12.81
2024-02-02T07:49:59.149Z,12.88
2024-02-02T07:50:55.145Z,12.93
2024-02-02T07:51:51.289Z,12.83
2024-02-02T07:52:48.199Z,12.87
2024-02-02T07:53:44.386Z,12.81
2024-02-02T07:54:42.314Z,12.83
2024-02-02T07:55:38.433Z,12.72
2024-02-02T07:56:34.511Z,12.73
2024-02-02T07:57:32.517Z,12.73
2024-02-02T07:58:28.683Z,12.77
2024-02-02T07:59:26.505Z,12.77
2024-02-02T08:00:23.906Z,12.91
2024-02-02T08:01:22.231Z,12.79
2024-02-02T08:02:19.235Z,12.83
2024-02-02T08:03:16.763Z,12.91
2024-02-02T08:04:13.754Z,12.87
2024-02-02T08:05:12.044Z,12.87
2024-02-02T08:06:09.317Z,12.98
2024-02-02T08:07:05.455Z,12.98
2024-02-02T08:08:02.332Z,12.95
2024-02-02T08:09:00.934Z,12.96
2024-02-02T08:09:56.972Z,12.88
2024-02-02T08:10:54.054Z,12.99
2024-02-02T08:13:08.461Z,12.95
2024-02-02T08:14:04.704Z,12.98
2024-02-02T08:15:03.172Z,12.98
2024-02-02T08:16:00.459Z,12.93
2024-02-02T08:16:57.648Z,12.96
2024-02-02T08:17:57.233Z,12.98
2024-02-02T08:18:56.125Z,12.98
2024-02-02T08:19:54.611Z,12.95
2024-02-02T08:20:50.602Z,12.98
2024-02-02T08:21:47.575Z,12.96
2024-02-02T08:22:44.671Z,13.02
2024-02-02T08:24:01.731Z,12.95
2024-02-02T08:25:15.902Z,12.91
2024-02-02T08:26:14.508Z,12.95
2024-02-02T08:27:13.843Z,12.96
2024-02-02T08:28:10.707Z,12.93
2024-02-02T08:29:10.383Z,12.96
2024-02-02T08:30:22.796Z,12.95
2024-02-02T08:31:21.235Z,12.99
2024-02-02T08:32:19.821Z,12.96
2024-02-02T08:33:18.509Z,12.96
2024-02-02T08:34:17.131Z,12.96
2024-02-02T08:35:13.176Z,13.02
2024-02-02T08:36:10.302Z,13.01
2024-02-02T08:37:07.276Z,13.04
2024-02-02T08:38:04.271Z,12.98
2024-02-02T08:39:02.904Z,12.95
2024-02-02T08:39:59.982Z,13.01
2024-02-02T08:40:56.961Z,12.98
2024-02-02T08:41:52.961Z,12.95
2024-02-02T08:42:50.509Z,12.98
2024-02-02T08:43:47.344Z,12.95
2024-02-02T08:44:44.202Z,12.98
2024-02-02T08:45:41.566Z,12.96
2024-02-02T08:46:40.051Z,12.96
2024-02-02T08:47:37.085Z,12.98
2024-02-02T08:48:34.088Z,13.08
2024-02-02T08:49:31.617Z,12.93
2024-02-02T08:50:28.290Z,13.01
2024-02-02T08:51:27.033Z,12.96
2024-02-02T08:52:24.012Z,13.02
2024-02-02T08:53:22.422Z,12.93
2024-02-02T08:54:19.716Z,12.96
2024-02-02T08:55:16.993Z,12.93
2024-02-02T08:56:15.345Z,12.96
2024-02-02T08:57:13.719Z,12.88
2024-02-02T08:58:10.950Z,12.88
2024-02-02T08:59:09.359Z,12.96
2024-02-02T09:00:06.681Z,12.93
2024-02-02T09:01:03.653Z,12.93
2024-02-02T09:02:00.690Z,12.99
2024-02-02T09:03:00.393Z,12.93
2024-02-02T09:03:54.852Z,12.96
2024-02-02T09:04:53.218Z,12.99
2024-02-02T09:05:50.421Z,12.95
2024-02-02T09:06:47.527Z,12.90
2024-02-02T09:07:44.487Z,12.96
2024-02-02T09:08:41.614Z,12.93
2024-02-02T09:09:38.644Z,12.96
2024-02-02T09:10:37.245Z,12.98
2024-02-02T09:11:34.512Z,12.95
2024-02-02T09:12:32.842Z,12.96
2024-02-02T09:13:29.849Z,13.01
2024-02-02T09:14:28.420Z,12.99
2024-02-02T09:15:25.608Z,12.99
2024-02-02T09:16:24.064Z,12.98
2024-02-02T09:17:21.109Z,12.95
2024-02-02T09:18:19.551Z,12.99
2024-02-02T09:19:18.212Z,12.96
2024-02-02T09:20:14.219Z,12.98
2024-02-02T09:21:12.823Z,12.98
2024-02-02T09:22:11.166Z,12.98
2024-02-02T09:23:09.752Z,12.99
2024-02-02T09:24:07.063Z,13.02
2024-02-02T09:25:04.168Z,12.98
2024-02-02T09:26:01.143Z,12.98
2024-02-02T09:26:58.581Z,12.98
2024-02-02T09:27:56.658Z,12.99
2024-02-02T09:28:55.229Z,12.96
2024-02-02T09:29:51.444Z,13.01
2024-02-02T09:30:50.041Z,12.98
2024-02-02T09:31:48.564Z,12.96
2024-02-02T09:32:45.323Z,12.99
2024-02-02T09:33:41.828Z,12.91
2024-02-02T09:34:40.227Z,12.99
2024-02-02T09:35:37.288Z,13.04
2024-02-02T09:36:34.553Z,12.96
2024-02-02T09:37:32.757Z,12.98
2024-02-02T09:38:28.986Z,12.88
2024-02-02T09:39:26.172Z,12.93
2024-02-02T09:40:24.618Z,12.93
2024-02-02T09:41:23.176Z,12.93
2024-02-02T09:42:20.290Z,12.91
2024-02-02T09:43:17.364Z,12.98
2024-02-02T09:44:18.216Z,12.98
2024-02-02T09:45:15.025Z,12.99
2024-02-02T09:46:12.084Z,12.98
2024-02-02T09:47:10.611Z,12.93
2024-02-02T09:48:07.778Z,12.93
2024-02-02T09:49:04.798Z,12.96
2024-02-02T09:50:03.560Z,13.01
2024-02-02T09:51:01.091Z,12.96
2024-02-02T09:51:58.370Z,12.98
2024-02-02T09:52:56.778Z,13.01
2024-02-02T09:53:53.911Z,13.01
2024-02-02T09:54:52.488Z,13.02
2024-02-02T09:55:50.943Z,12.98
2024-02-02T09:56:49.634Z,12.99
2024-02-02T09:57:48.216Z,12.93
2024-02-02T09:58:46.764Z,12.96
2024-02-02T09:59:45.175Z,12.99
2024-02-02T10:00:42.573Z,12.96
2024-02-02T10:01:41.049Z,12.98
2024-02-02T10:02:39.384Z,12.98
2024-02-02T10:03:35.843Z,13.01
2024-02-02T10:04:34.198Z,12.96
2024-02-02T10:05:31.238Z,12.96
2024-02-02T10:06:28.413Z,12.99
2024-02-02T10:07:27.002Z,12.99
2024-02-02T10:08:25.390Z,13.04
2024-02-02T10:09:22.681Z,13.02
2024-02-02T10:10:19.682Z,13.01
2024-02-02T10:11:19.893Z,13.02
2024-02-02T10:12:15.420Z,12.96
2024-02-02T10:13:13.900Z,13.02
2024-02-02T10:14:12.431Z,13.01
2024-02-02T10:15:10.799Z,13.01
2024-02-02T10:16:09.501Z,12.95
2024-02-02T10:17:07.997Z,12.91
2024-02-02T10:18:06.476Z,12.98
2024-02-02T10:19:08.960Z,12.98
2024-02-02T10:20:07.237Z,12.98
2024-02-02T10:21:05.795Z,12.96
2024-02-02T10:22:01.980Z,12.96
2024-02-02T10:25:18.586Z,13.01
2024-02-02T10:26:16.512Z,13.01
2024-02-02T10:27:14.825Z,12.96
2024-02-02T10:28:13.432Z,12.99
2024-02-02T10:29:11.098Z,12.96
2024-02-02T10:30:08.980Z,12.93
2024-02-02T10:31:06.580Z,12.96
2024-02-02T10:32:03.662Z,12.98
2024-02-02T10:33:02.381Z,13.02
2024-02-02T10:33:59.433Z,12.99
2024-02-02T10:34:57.843Z,13.01
2024-02-02T10:35:55.254Z,12.96
2024-02-02T10:37:05.189Z,12.98
2024-02-02T10:38:03.754Z,12.99
2024-02-02T10:39:02.639Z,12.99
2024-02-02T10:40:01.045Z,12.99
2024-02-02T10:40:59.389Z,12.98
2024-02-02T10:41:56.956Z,12.95
2024-02-02T10:42:55.101Z,12.98
2024-02-02T10:43:54.983Z,12.96
2024-02-02T10:44:53.686Z,12.96
2024-02-02T10:45:50.972Z,12.96
2024-02-02T10:46:49.271Z,12.99
2024-02-02T10:47:47.706Z,12.93
2024-02-02T10:48:46.860Z,12.93
2024-02-02T10:49:45.146Z,12.93
2024-02-02T10:50:31.066Z,12.93
2024-02-02T10:51:28.211Z,12.99
2024-02-02T10:52:26.532Z,12.96
2024-02-02T10:53:25.264Z,12.93
2024-02-02T10:54:23.913Z,12.93
2024-02-02T10:55:21.238Z,12.98
2024-02-02T10:57:24.233Z,12.96
2024-02-02T10:58:19.777Z,12.95
2024-02-02T10:59:18.529Z,12.96
2024-02-02T11:00:16.970Z,12.98
2024-02-02T11:01:14.080Z,12.96
2024-02-02T11:02:11.330Z,12.99
2024-02-02T11:03:09.689Z,12.96
2024-02-02T11:04:08.070Z,12.98
2024-02-02T11:05:07.695Z,12.96
2024-02-02T11:06:04.641Z,12.96
2024-02-02T11:07:03.233Z,12.95
2024-02-02T11:08:01.667Z,13.02
2024-02-02T11:09:00.413Z,12.96
2024-02-02T11:09:57.977Z,13.01
2024-02-02T11:10:54.348Z,12.98
2024-02-02T11:11:51.328Z,12.96
2024-02-02T11:12:49.702Z,12.99
2024-02-02T11:13:48.238Z,13.01
2024-02-02T11:14:45.521Z,13.01
2024-02-02T11:15:44.040Z,12.98
2024-02-02T11:16:41.110Z,12.95
2024-02-02T11:17:39.960Z,12.96
2024-02-02T11:18:38.423Z,12.96
2024-02-02T11:19:35.477Z,12.98
2024-02-02T11:20:32.750Z,12.90
2024-02-02T11:21:31.576Z,13.01
2024-02-02T11:22:32.900Z,13.01
2024-02-02T11:23:29.433Z,12.96
2024-02-02T11:24:26.682Z,12.99
2024-02-02T11:25:23.753Z,12.98
2024-02-02T11:26:20.806Z,12.95
2024-02-02T11:27:18.549Z,12.98
2024-02-02T11:28:16.762Z,12.93
2024-02-02T11:29:13.012Z,12.96
2024-02-02T11:30:10.084Z,12.98
2024-02-02T11:31:08.627Z,13.02
2024-02-02T11:32:05.656Z,12.99
2024-02-02T11:33:03.243Z,13.02
2024-02-02T11:34:01.214Z,12.96
2024-02-02T11:34:58.390Z,12.99
2024-02-02T11:35:55.532Z,12.99
2024-02-02T11:36:52.636Z,13.01
2024-02-02T11:37:48.680Z,12.98
2024-02-02T11:38:47.200Z,12.96
2024-02-02T11:39:45.752Z,13.05
2024-02-02T11:40:44.719Z,12.98
2024-02-02T11:41:41.530Z,12.98
2024-02-02T11:42:40.167Z,12.99
2024-02-02T11:43:36.121Z,12.96
2024-02-02T11:44:34.535Z,13.01
2024-02-02T11:45:33.261Z,12.96
2024-02-02T11:46:30.302Z,12.98
2024-02-02T11:47:28.651Z,12.99
2024-02-02T11:48:25.827Z,12.95
2024-02-02T11:49:23.221Z,12.98
2024-02-02T11:50:20.056Z,12.96
2024-02-02T11:51:16.366Z,12.99
2024-02-02T11:52:13.441Z,12.95
2024-02-02T11:53:11.897Z,12.95
2024-02-02T11:54:10.454Z,12.98
2024-02-02T11:55:08.972Z,12.95
2024-02-02T11:56:05.439Z,12.93
2024-02-02T11:57:02.374Z,12.95
2024-02-02T11:57:59.560Z,12.93
2024-02-02T11:58:56.512Z,12.96
2024-02-02T11:59:54.630Z,12.99
2024-02-02T12:00:52.108Z,12.86
2024-02-02T12:01:49.107Z,12.88
2024-02-02T12:02:46.285Z,12.93
2024-02-02T12:03:44.719Z,12.98
2024-02-02T12:04:42.179Z,12.98
2024-02-02T12:05:40.257Z,12.98
2024-02-02T12:06:40.168Z,13.06
2024-02-02T12:07:38.395Z,12.93
2024-02-02T12:08:35.424Z,12.93
2024-02-02T12:09:34.417Z,12.95
2024-02-02T12:10:31.322Z,12.98
2024-02-02T12:11:44.371Z,13.01
2024-02-02T12:12:49.433Z,12.98
2024-02-02T12:13:47.399Z,13.02
2024-02-02T12:14:44.755Z,13.01
2024-02-02T12:15:43.355Z,13.04
2024-02-02T12:16:41.973Z,12.98
2024-02-02T12:17:40.329Z,12.93
2024-02-02T12:18:38.981Z,13.06
2024-02-02T12:19:37.504Z,12.93
2024-02-02T12:20:36.436Z,13.01
2024-02-02T12:21:34.766Z,12.95
2024-02-02T12:22:33.493Z,12.96
2024-02-02T12:23:30.465Z,12.98
2024-02-02T12:24:28.989Z,13.01
2024-02-02T12:25:26.167Z,13.02
2024-02-02T12:26:24.566Z,12.99
2024-02-02T12:27:22.130Z,12.96
2024-02-02T12:28:19.823Z,12.95
2024-02-02T12:29:18.474Z,12.90
2024-02-02T12:30:14.498Z,12.93
2024-02-02T12:31:10.544Z,12.87
2024-02-02T12:32:06.843Z,12.83
2024-02-02T12:33:02.737Z,12.87
2024-02-02T12:33:59.643Z,12.93
2024-02-02T12:34:57.320Z,12.81
2024-02-02T12:35:56.363Z,12.81
2024-02-02T12:36:52.797Z,12.90
2024-02-02T12:37:51.661Z,12.93
2024-02-02T12:38:49.986Z,12.93
2024-02-02T12:39:47.129Z,12.88
2024-02-02T12:40:43.460Z,12.91
2024-02-02T12:41:41.801Z,12.87
2024-02-02T12:42:39.205Z,12.96
2024-02-02T12:43:37.626Z,12.86
2024-02-02T12:44:36.003Z,12.84
2024-02-02T12:45:34.514Z,12.80
2024-02-02T12:46:33.004Z,12.83
2024-02-02T12:47:30.269Z,12.86
2024-02-02T12:48:29.287Z,12.88
2024-02-02T12:49:27.468Z,12.98
2024-02-02T12:50:24.711Z,12.87
2024-02-02T12:51:22.552Z,12.99
2024-02-02T12:52:18.814Z,13.02
2024-02-02T12:53:17.329Z,12.95
2024-02-02T12:54:13.836Z,12.98
2024-02-02T12:55:11.777Z,12.93
2024-02-02T12:56:10.353Z,12.96
2024-02-02T12:57:07.607Z,13.01
2024-02-02T12:58:05.904Z,12.93
2024-02-02T12:59:04.794Z,12.95
2024-02-02T13:00:02.068Z,12.95
2024-02-02T13:01:00.565Z,12.93
2024-02-02T13:01:59.228Z,12.90
2024-02-02T13:02:57.672Z,12.95
2024-02-02T13:03:56.234Z,12.91
2024-02-02T13:04:53.681Z,12.96
2024-02-02T13:05:50.645Z,12.84
2024-02-02T13:06:47.044Z,12.90
2024-02-02T13:07:43.869Z,12.99
2024-02-02T13:08:42.665Z,12.99
2024-02-02T13:09:41.136Z,12.95
2024-02-02T13:10:38.682Z,12.98
2024-02-02T13:11:37.441Z,12.98
2024-02-02T13:12:36.287Z,12.99
2024-02-02T13:13:32.907Z,12.93
2024-02-02T13:14:31.358Z,12.95
2024-02-02T13:15:31.172Z,12.96
2024-02-02T13:16:29.428Z,12.96
2024-02-02T13:17:29.286Z,12.95
2024-02-02T13:18:27.957Z,12.93
2024-02-02T13:19:27.267Z,12.99
2024-02-02T13:20:25.511Z,12.98
2024-02-02T13:21:25.467Z,12.98
2024-02-02T13:22:38.417Z,12.93
2024-02-02T13:23:35.781Z,12.96
2024-02-02T13:24:34.329Z,12.93
2024-02-02T13:25:32.573Z,12.93
2024-02-02T13:26:30.419Z,12.93
2024-02-02T13:27:29.123Z,12.91
2024-02-02T13:28:27.483Z,13.02
2024-02-02T13:29:26.986Z,13.01
2024-02-02T13:30:24.175Z,12.98
2024-02-02T13:31:21.298Z,13.04
2024-02-02T13:32:19.952Z,12.93
2024-02-02T13:33:18.212Z,13.01
2024-02-02T13:34:15.998Z,12.98
2024-02-02T13:35:12.792Z,12.98
2024-02-02T13:36:09.478Z,12.93
2024-02-02T13:37:09.599Z,12.98
2024-02-02T13:38:08.331Z,12.98
2024-02-02T13:39:06.711Z,13.01
2024-02-02T13:40:04.313Z,12.98
2024-02-02T13:42:02.367Z,12.96
2024-02-02T13:43:58.330Z,12.98
2024-02-02T14:03:36.183Z,12.99
2024-02-02T14:12:35.325Z,12.98
2024-02-02T14:14:16.195Z,12.98
2024-02-02T14:15:23.828Z,12.93
2024-02-02T14:25:14.470Z,13.05
2024-02-02T14:27:12.931Z,13.04
2024-02-02T14:28:14.124Z,12.95
2024-02-02T14:29:11.838Z,12.99
2024-02-02T14:30:10.582Z,12.95
2024-02-02T14:31:09.200Z,12.99
2024-02-02T14:32:08.356Z,12.99
2024-02-02T14:33:08.500Z,12.99
2024-02-02T14:33:53.231Z,12.98
2024-02-02T14:34:52.626Z,13.01
2024-02-02T14:37:03.043Z,13.04
2024-02-02T14:39:17.089Z,12.96
2024-02-02T14:45:25.074Z,12.95
2024-02-02T14:46:17.219Z,12.99
2024-02-02T14:52:15.574Z,12.95
2024-02-02T14:53:15.981Z,12.98
2024-02-02T14:56:58.605Z,13.05
2024-02-02T14:58:57.544Z,12.98
2024-02-02T14:59:55.362Z,12.95
2024-02-02T15:01:55.174Z,13.01
2024-02-02T15:02:53.731Z,12.99
2024-02-02T15:03:51.874Z,12.95
2024-02-02T15:08:15.456Z,13.01
2024-02-02T15:09:15.336Z,13.02
2024-02-02T15:10:14.681Z,12.99
2024-02-02T15:11:16.855Z,13.01
2024-02-02T15:12:21.455Z,12.99
2024-02-02T15:13:23.354Z,12.98
2024-02-02T15:14:27.729Z,13.01
2024-02-02T15:15:31.145Z,13.01
2024-02-02T15:34:45.060Z,13.01
2024-02-02T15:36:04.571Z,13.04
2024-02-02T15:37:00.841Z,13.01
2024-02-02T15:38:30.066Z,12.95
2024-02-02T15:39:34.820Z,13.02
2024-02-02T15:40:25.006Z,13.04
2024-02-02T15:41:24.921Z,12.99
2024-02-02T15:42:21.172Z,13.02
2024-02-02T15:43:19.330Z,13.01
2024-02-02T15:44:18.657Z,12.91
2024-02-02T15:45:21.169Z,13.06
2024-02-02T15:46:23.229Z,12.98
2024-02-02T15:48:28.822Z,12.98
2024-02-02T15:49:28.882Z,12.95
2024-02-02T15:50:29.557Z,12.99
2024-02-02T15:51:25.769Z,12.95
2024-02-02T16:02:40.180Z,13.01
2024-02-02T16:06:06.172Z,12.98
2024-02-02T16:17:27.181Z,12.99
2024-02-02T16:18:26.923Z,13.06
2024-02-02T16:19:26.826Z,13.04
2024-02-02T16:20:25.555Z,13.02
2024-02-02T16:21:24.378Z,12.95
2024-02-02T16:22:22.856Z,12.96
2024-02-02T16:23:21.070Z,13.01
2024-02-02T16:24:19.514Z,12.95
2024-02-02T16:25:17.648Z,12.98
2024-02-02T16:26:21.381Z,12.95
2024-02-02T16:29:57.996Z,13.08
2024-02-02T16:31:02.456Z,12.95
2024-02-02T16:33:17.690Z,12.91
2024-02-02T16:34:17.687Z,13.01
2024-02-02T16:36:04.388Z,13.01
2024-02-02T16:37:01.438Z,13.01
2024-02-02T16:38:00.064Z,13.05
2024-02-02T16:38:58.732Z,13.08
2024-02-02T16:39:55.826Z,13.11
2024-02-02T16:40:51.834Z,13.06
2024-02-02T16:41:48.325Z,13.08
2024-02-02T16:42:45.258Z,12.98
2024-02-02T16:43:41.289Z,13.11
2024-02-02T16:44:37.569Z,13.09
2024-02-02T16:45:33.663Z,13.06
2024-02-02T16:46:29.740Z,13.14
2024-02-02T16:47:26.118Z,13.11
2024-02-02T16:48:22.198Z,13.13
2024-02-02T16:49:18.356Z,13.08
2024-02-02T16:50:14.688Z,13.02
2024-02-02T16:51:11.689Z,13.13
2024-02-02T16:52:10.200Z,13.06
2024-02-02T16:53:08.731Z,13.08
2024-02-02T16:54:07.373Z,12.99
2024-02-02T16:55:04.342Z,13.06
2024-02-02T16:56:02.932Z,12.95
2024-02-02T16:57:00.305Z,13.06
2024-02-02T16:57:58.768Z,13.05
2024-02-02T16:58:59.529Z,13.04
2024-02-02T16:59:56.375Z,13.06
2024-02-02T17:00:52.444Z,13.04
2024-02-02T17:01:51.310Z,12.95
2024-02-02T17:02:47.383Z,13.04
2024-02-02T17:03:44.321Z,12.96
2024-02-02T17:04:40.943Z,12.95
2024-02-02T17:05:37.989Z,13.04
2024-02-02T17:06:35.327Z,13.01
2024-02-02T17:07:33.178Z,13.02
2024-02-02T17:08:30.118Z,12.93
2024-02-02T17:09:26.345Z,13.05
2024-02-02T17:10:23.583Z,13.06
2024-02-02T17:11:20.248Z,13.01
2024-02-02T17:12:17.856Z,13.01
2024-02-02T17:13:14.586Z,12.95
2024-02-02T17:14:12.238Z,13.05
2024-02-02T17:15:07.153Z,13.05
2024-02-02T17:16:05.711Z,13.04
2024-02-02T17:17:02.998Z,13.04
2024-02-02T17:18:03.431Z,13.04
2024-02-02T17:18:59.436Z,13.01
2024-02-02T17:19:58.095Z,13.09
2024-02-02T17:20:55.078Z,13.05
2024-02-02T17:21:51.789Z,13.05
2024-02-02T17:22:48.718Z,13.05
2024-02-02T17:23:44.708Z,13.02
2024-02-02T17:24:40.849Z,13.04
2024-02-02T17:25:39.530Z,13.04
2024-02-02T17:26:38.144Z,13.05
2024-02-02T17:27:33.975Z,13.06
2024-02-02T17:28:31.865Z,13.06
2024-02-02T17:29:30.356Z,13.05
2024-02-02T17:30:28.294Z,13.09
2024-02-02T17:31:27.535Z,13.05
2024-02-02T17:32:34.972Z,13.06
2024-02-02T17:33:33.955Z,12.98
2024-02-02T17:35:40.422Z,13.13
2024-02-02T17:36:31.424Z,12.99
2024-02-02T17:37:30.994Z,13.04
2024-02-02T17:38:42.616Z,12.98
2024-02-02T17:39:41.480Z,13.05
2024-02-02T17:40:37.206Z,13.06
2024-02-02T17:41:34.478Z,13.08
2024-02-02T17:42:31.184Z,12.98
2024-02-02T17:43:28.183Z,12.98
2024-02-02T17:44:26.822Z,13.04
2024-02-02T17:45:20.759Z,13.05
2024-02-02T17:46:16.446Z,12.98
2024-02-02T17:47:12.500Z,13.04
2024-02-02T17:48:09.847Z,13.06
2024-02-02T17:49:07.052Z,13.05
2024-02-02T17:50:04.300Z,12.98
2024-02-02T17:50:59.042Z,13.05
2024-02-02T17:51:54.996Z,12.96
2024-02-02T17:52:52.150Z,12.99
2024-02-02T17:53:48.046Z,13.02
2024-02-02T17:54:45.403Z,13.02
2024-02-02T17:55:41.299Z,13.02
2024-02-02T17:56:38.575Z,13.04
2024-02-02T17:57:35.475Z,13.04
2024-02-02T17:58:32.601Z,13.04
2024-02-02T17:59:29.557Z,12.98
2024-02-02T18:00:26.630Z,13.04
2024-02-02T18:01:23.805Z,12.98
2024-02-02T18:02:20.672Z,13.05